createdAt,value
2022-10-05T00:00:09.240Z,69.12
2022-10-05T00:00:20.450Z,69.11
2022-10-05T00:00:30.451Z,69.21
2022-10-05T00:00:40.439Z,69.18
2022-10-05T00:00:50.039Z,69.19
2022-10-05T00:00:59.098Z,69.16
2022-10-05T00:01:10.439Z,69.10
2022-10-05T00:01:19.021Z,69.21
2022-10-05T00:01:30.007Z,69.11
2022-10-05T00:01:40.473Z,69.20
2022-10-05T00:01:50.466Z,69.21
2022-10-05T00:01:59.019Z,69.20
2022-10-05T00:02:09.978Z,69.20
2022-10-05T00:02:18.979Z,69.31
2022-10-05T00:02:30.450Z,69.26
2022-10-05T00:02:40.450Z,69.37
2022-10-05T00:02:49.852Z,69.31
2022-10-05T00:03:00.460Z,69.24
2022-10-05T00:03:08.990Z,69.25
2022-10-05T00:03:20.431Z,69.20
2022-10-05T00:03:30.445Z,69.34
2022-10-05T00:03:40.429Z,69.31
2022-10-05T00:03:50.475Z,69.32
2022-10-05T00:04:00.461Z,69.33
2022-10-05T00:04:10.011Z,69.34
2022-10-05T00:04:18.971Z,69.26
2022-10-05T00:04:30.468Z,69.26
2022-10-05T00:04:40.442Z,69.39
2022-10-05T00:04:50.450Z,69.39
2022-10-05T00:04:59.030Z,69.40
2022-10-05T00:05:09.074Z,69.34
2022-10-05T00:05:19.056Z,69.44
2022-10-05T00:05:29.030Z,69.45
2022-10-05T00:05:40.410Z,69.49
2022-10-05T00:05:48.961Z,69.59
2022-10-05T00:05:58.981Z,69.49
2022-10-05T00:06:09.941Z,69.48
2022-10-05T00:06:20.421Z,69.55
2022-10-05T00:06:30.433Z,69.59
2022-10-05T00:06:40.411Z,69.56
2022-10-05T00:06:50.404Z,69.54
2022-10-05T00:07:00.441Z,69.50
2022-10-05T00:07:10.401Z,69.51
2022-10-05T00:07:18.975Z,69.56
2022-10-05T00:07:28.962Z,69.52
2022-10-05T00:07:38.951Z,69.52
2022-10-05T00:07:50.412Z,69.51
2022-10-05T00:08:00.382Z,69.60
2022-10-05T00:08:08.968Z,69.65
2022-10-05T00:08:20.400Z,69.54
2022-10-05T00:08:30.391Z,69.61
2022-10-05T00:08:40.391Z,69.64
2022-10-05T00:08:50.404Z,69.62
2022-10-05T00:09:00.394Z,69.54
2022-10-05T00:09:10.391Z,69.61
2022-10-05T00:09:20.385Z,69.62
2022-10-05T00:09:30.375Z,69.64
2022-10-05T00:09:40.383Z,69.70
2022-10-05T00:09:48.944Z,69.71
2022-10-05T00:09:58.934Z,69.63
2022-10-05T00:10:08.942Z,69.69
2022-10-05T00:10:18.949Z,69.77
2022-10-05T00:10:29.531Z,69.82
2022-10-05T00:10:38.921Z,69.85
2022-10-05T00:10:49.851Z,69.84
2022-10-05T00:10:58.956Z,69.93
2022-10-05T00:11:10.371Z,69.75
2022-10-05T00:11:19.802Z,69.85
2022-10-05T00:11:28.955Z,69.76
2022-10-05T00:11:40.386Z,69.77
2022-10-05T00:11:49.873Z,69.85
2022-10-05T00:11:58.916Z,69.82
2022-10-05T00:12:08.924Z,69.77
2022-10-05T00:12:20.374Z,69.75
2022-10-05T00:12:30.367Z,69.85
2022-10-05T00:12:40.376Z,69.83
2022-10-05T00:12:48.932Z,69.83
2022-10-05T00:12:59.892Z,69.73
2022-10-05T00:13:08.922Z,69.82
2022-10-05T00:13:18.935Z,69.75
2022-10-05T00:13:30.381Z,69.76
2022-10-05T00:13:40.345Z,69.86
2022-10-05T00:13:48.910Z,69.85
2022-10-05T00:13:59.004Z,69.72
2022-10-05T00:14:09.782Z,69.84
2022-10-05T00:14:20.353Z,69.93
2022-10-05T00:14:28.902Z,69.91
2022-10-05T00:14:38.913Z,69.81
2022-10-05T00:14:48.915Z,69.82
2022-10-05T00:14:58.914Z,69.83
2022-10-05T00:15:08.902Z,69.88
2022-10-05T00:15:18.896Z,69.91
2022-10-05T00:15:30.355Z,69.92
2022-10-05T00:15:38.895Z,70.06
2022-10-05T00:15:50.351Z,69.97
2022-10-05T00:15:58.894Z,70.09
2022-10-05T00:16:08.933Z,70.04
2022-10-05T00:16:20.408Z,70.06
2022-10-05T00:16:28.943Z,70.13
2022-10-05T00:16:40.377Z,70.00
2022-10-05T00:16:49.491Z,70.06
2022-10-05T00:16:58.948Z,70.00
2022-10-05T00:17:08.900Z,69.99
2022-10-05T00:17:19.737Z,69.99
2022-10-05T00:17:28.889Z,70.07
2022-10-05T00:17:40.343Z,69.99
2022-10-05T00:17:49.482Z,70.10
2022-10-05T00:17:59.803Z,69.97
2022-10-05T00:18:10.333Z,70.07
2022-10-05T00:18:20.313Z,70.07
2022-10-05T00:18:29.624Z,70.07
2022-10-05T00:18:40.326Z,70.00
2022-10-05T00:18:50.337Z,70.03
2022-10-05T00:18:58.905Z,70.07
2022-10-05T00:19:10.353Z,69.94
2022-10-05T00:19:19.494Z,70.07
2022-10-05T00:19:28.846Z,70.02
2022-10-05T00:19:40.315Z,70.00
2022-10-05T00:19:50.317Z,70.07
2022-10-05T00:20:00.313Z,69.98
2022-10-05T00:20:10.314Z,69.98
2022-10-05T00:20:20.303Z,70.05
2022-10-05T00:20:28.854Z,70.05
2022-10-05T00:20:40.325Z,69.93
2022-10-05T00:20:50.306Z,70.13
2022-10-05T00:20:58.862Z,70.06
2022-10-05T00:21:10.315Z,69.96
2022-10-05T00:21:18.847Z,70.07
2022-10-05T00:21:30.304Z,69.99
2022-10-05T00:21:40.295Z,70.14
2022-10-05T00:21:49.504Z,70.12
2022-10-05T00:21:58.824Z,70.08
2022-10-05T00:22:10.285Z,70.08
2022-10-05T00:22:18.902Z,70.20
2022-10-05T00:22:30.286Z,70.15
2022-10-05T00:22:40.294Z,70.29
2022-10-05T00:22:48.834Z,70.28
2022-10-05T00:23:00.313Z,70.18
2022-10-05T00:23:08.834Z,70.39
2022-10-05T00:23:18.905Z,70.28
2022-10-05T00:23:30.084Z,70.34
2022-10-05T00:23:38.845Z,70.43
2022-10-05T00:23:48.909Z,70.33
2022-10-05T00:23:59.055Z,70.38
2022-10-05T00:24:08.977Z,70.44
2022-10-05T00:24:18.915Z,70.49
2022-10-05T00:24:28.944Z,70.52
2022-10-05T00:24:38.837Z,70.57
2022-10-05T00:24:49.014Z,70.67
2022-10-05T00:24:58.946Z,70.72
2022-10-05T00:25:08.816Z,70.72
2022-10-05T00:25:20.296Z,70.73
2022-10-05T00:25:30.266Z,70.92
2022-10-05T00:25:39.780Z,70.96
2022-10-05T00:25:50.286Z,70.94
2022-10-05T00:26:00.256Z,70.97
2022-10-05T00:26:08.816Z,71.02
2022-10-05T00:26:18.835Z,70.98
2022-10-05T00:26:28.854Z,71.01
2022-10-05T00:26:38.828Z,71.06
2022-10-05T00:26:54.171Z,71.12
2022-10-05T00:27:01.347Z,71.59
2022-10-05T00:27:11.326Z,71.44
2022-10-05T00:27:20.065Z,71.36
2022-10-05T00:27:31.306Z,71.27
2022-10-05T00:27:41.315Z,71.42
2022-10-05T00:27:51.326Z,71.51
2022-10-05T00:28:01.366Z,71.47
2022-10-05T00:28:10.191Z,71.48
2022-10-05T00:28:21.366Z,71.45
2022-10-05T00:28:31.332Z,71.58
2022-10-05T00:28:39.856Z,71.57
2022-10-05T00:28:51.329Z,71.48
2022-10-05T00:29:01.319Z,71.58
2022-10-05T00:29:11.296Z,71.58
2022-10-05T00:29:21.196Z,71.58
2022-10-05T00:29:31.289Z,71.54
2022-10-05T00:29:40.816Z,71.62
2022-10-05T00:29:50.836Z,71.66
2022-10-05T00:30:01.324Z,71.80
2022-10-05T00:30:09.825Z,71.86
2022-10-05T00:30:20.182Z,71.79
2022-10-05T00:30:31.277Z,71.88
2022-10-05T00:30:40.766Z,71.98
2022-10-05T00:30:49.861Z,72.00
2022-10-05T00:30:59.867Z,71.95
2022-10-05T00:31:11.432Z,72.02
2022-10-05T00:31:21.387Z,72.20
2022-10-05T00:31:31.333Z,72.18
2022-10-05T00:31:39.871Z,72.20
2022-10-05T00:31:51.410Z,72.09
2022-10-05T00:32:01.355Z,72.29
2022-10-05T00:32:09.961Z,72.24
2022-10-05T00:32:19.847Z,72.22
2022-10-05T00:32:31.277Z,72.27
2022-10-05T00:32:39.838Z,72.40
2022-10-05T00:32:53.015Z,72.34
2022-10-05T00:33:00.786Z,72.76
2022-10-05T00:33:12.237Z,72.55
2022-10-05T00:33:22.228Z,72.53
2022-10-05T00:33:32.220Z,72.49
2022-10-05T00:33:40.767Z,72.50
2022-10-05T00:33:50.776Z,72.39
2022-10-05T00:34:00.787Z,72.45
2022-10-05T00:34:10.767Z,72.48
2022-10-05T00:34:22.231Z,72.53
2022-10-05T00:34:32.219Z,72.64
2022-10-05T00:34:42.210Z,72.64
2022-10-05T00:34:50.767Z,72.65
2022-10-05T00:35:00.770Z,72.61
2022-10-05T00:35:12.198Z,72.80
2022-10-05T00:35:20.759Z,72.97
2022-10-05T00:35:30.779Z,72.87
2022-10-05T00:35:40.768Z,72.90
2022-10-05T00:35:50.771Z,72.93
2022-10-05T00:36:01.389Z,72.98
2022-10-05T00:36:12.199Z,73.07
2022-10-05T00:36:20.939Z,73.11
2022-10-05T00:36:32.180Z,72.99
2022-10-05T00:36:40.762Z,73.05
2022-10-05T00:36:50.761Z,72.89
2022-10-05T00:37:02.218Z,72.95
2022-10-05T00:37:10.737Z,72.99
2022-10-05T00:37:22.208Z,72.92
2022-10-05T00:37:32.191Z,73.05
2022-10-05T00:37:40.739Z,73.04
2022-10-05T00:37:52.199Z,73.02
2022-10-05T00:38:02.189Z,73.19
2022-10-05T00:38:10.739Z,73.24
2022-10-05T00:38:22.199Z,73.11
2022-10-05T00:38:32.179Z,73.22
2022-10-05T00:38:40.741Z,73.24
2022-10-05T00:38:50.751Z,73.13
2022-10-05T00:39:00.762Z,73.19
2022-10-05T00:39:10.740Z,73.19
2022-10-05T00:39:22.198Z,73.20
2022-10-05T00:39:30.727Z,73.23
2022-10-05T00:39:42.181Z,73.13
2022-10-05T00:39:52.169Z,73.21
2022-10-05T00:40:00.759Z,73.19
2022-10-05T00:40:10.731Z,73.09
2022-10-05T00:40:22.194Z,73.11
2022-10-05T00:40:31.669Z,73.25
2022-10-05T00:40:42.179Z,73.16
2022-10-05T00:40:50.709Z,73.18
2022-10-05T00:41:00.738Z,73.14
2022-10-05T00:41:10.720Z,73.17
2022-10-05T00:41:20.751Z,73.17
2022-10-05T00:41:30.720Z,73.18
2022-10-05T00:41:40.728Z,73.24
2022-10-05T00:41:52.189Z,73.29
2022-10-05T00:42:00.719Z,73.36
2022-10-05T00:42:12.159Z,73.29
2022-10-05T00:42:20.700Z,73.41
2022-10-05T00:42:32.179Z,73.27
2022-10-05T00:42:42.160Z,73.38
2022-10-05T00:42:50.710Z,73.41
2022-10-05T00:43:00.710Z,73.26
2022-10-05T00:43:12.151Z,73.35
2022-10-05T00:43:20.699Z,73.41
2022-10-05T00:43:30.697Z,73.21
2022-10-05T00:43:40.719Z,73.24
2022-10-05T00:43:52.160Z,73.22
2022-10-05T00:44:02.141Z,73.29
2022-10-05T00:44:10.701Z,73.23
2022-10-05T00:44:20.710Z,73.16
2022-10-05T00:44:32.161Z,73.16
2022-10-05T00:44:42.142Z,73.27
2022-10-05T00:44:52.140Z,73.19
2022-10-05T00:45:02.144Z,73.17
2022-10-05T00:45:12.120Z,73.18
2022-10-05T00:45:21.660Z,73.21
2022-10-05T00:45:32.183Z,73.19
2022-10-05T00:45:42.176Z,73.25
2022-10-05T00:45:50.720Z,73.20
2022-10-05T00:46:00.745Z,73.16
2022-10-05T00:46:12.185Z,73.21
2022-10-05T00:46:22.299Z,73.37
2022-10-05T00:46:30.661Z,73.35
2022-10-05T00:46:40.690Z,73.27
2022-10-05T00:46:52.135Z,73.30
2022-10-05T00:47:00.679Z,73.40
2022-10-05T00:47:12.131Z,73.39
2022-10-05T00:47:21.464Z,73.58
2022-10-05T00:47:30.667Z,73.51
2022-10-05T00:47:42.120Z,73.51
2022-10-05T00:47:52.111Z,73.64
2022-10-05T00:48:00.670Z,73.67
2022-10-05T00:48:12.121Z,73.58
2022-10-05T00:48:20.669Z,73.70
2022-10-05T00:48:32.102Z,73.65
2022-10-05T00:48:42.106Z,73.80
2022-10-05T00:48:51.122Z,73.74
2022-10-05T00:49:02.092Z,73.69
2022-10-05T00:49:11.001Z,73.81
2022-10-05T00:49:21.531Z,73.75
2022-10-05T00:49:32.097Z,73.84
2022-10-05T00:49:42.094Z,73.90
2022-10-05T00:49:50.992Z,73.97
2022-10-05T00:50:00.641Z,73.97
2022-10-05T00:50:10.907Z,74.03
2022-10-05T00:50:21.134Z,74.10
2022-10-05T00:50:31.172Z,74.13
2022-10-05T00:50:40.630Z,74.14
2022-10-05T00:50:51.240Z,74.15
2022-10-05T00:51:01.195Z,74.23
2022-10-05T00:51:10.911Z,74.31
2022-10-05T00:51:21.243Z,74.37
2022-10-05T00:51:31.280Z,74.47
2022-10-05T00:51:40.702Z,74.51
2022-10-05T00:51:50.843Z,74.55
2022-10-05T00:52:01.282Z,74.62
2022-10-05T00:52:11.512Z,74.70
2022-10-05T00:52:22.169Z,74.77
2022-10-05T00:52:30.642Z,74.87
2022-10-05T00:52:40.642Z,74.83
2022-10-05T00:52:51.152Z,74.89
2022-10-05T00:53:00.615Z,74.97
2022-10-05T00:53:10.923Z,74.96
2022-10-05T00:53:22.062Z,75.02
2022-10-05T00:53:32.091Z,75.13
2022-10-05T00:53:41.573Z,75.12
2022-10-05T00:53:52.052Z,75.14
2022-10-05T00:54:00.654Z,75.12
2022-10-05T00:54:13.618Z,75.14
2022-10-05T00:54:22.070Z,75.55
2022-10-05T00:54:30.603Z,75.44
2022-10-05T00:54:40.625Z,75.32
2022-10-05T00:54:50.652Z,75.29
2022-10-05T00:55:02.058Z,75.33
2022-10-05T00:55:10.622Z,75.41
2022-10-05T00:55:20.656Z,75.29
2022-10-05T00:55:32.057Z,75.42
2022-10-05T00:55:40.733Z,75.55
2022-10-05T00:55:50.663Z,75.43
2022-10-05T00:56:00.604Z,75.48
2022-10-05T00:56:10.611Z,75.53
2022-10-05T00:56:22.075Z,75.60
2022-10-05T00:56:32.063Z,75.78
2022-10-05T00:56:41.565Z,75.78
2022-10-05T00:56:52.053Z,75.78
2022-10-05T00:57:00.624Z,75.85
2022-10-05T00:57:11.544Z,75.76
2022-10-05T00:57:20.603Z,75.88
2022-10-05T00:57:32.054Z,75.84
2022-10-05T00:57:41.545Z,75.96
2022-10-05T00:57:50.613Z,75.94
2022-10-05T00:58:02.053Z,75.95
2022-10-05T00:58:11.534Z,76.08
2022-10-05T00:58:22.044Z,76.11
2022-10-05T00:58:32.055Z,76.17
2022-10-05T00:58:42.044Z,76.14
2022-10-05T00:58:50.575Z,76.12
2022-10-05T00:59:02.049Z,76.02
2022-10-05T00:59:11.535Z,76.15
2022-10-05T00:59:20.595Z,76.12
2022-10-05T00:59:30.747Z,76.11
2022-10-05T00:59:40.652Z,76.13
2022-10-05T00:59:50.687Z,76.14
2022-10-05T01:00:02.026Z,76.15
2022-10-05T01:00:10.565Z,76.25
2022-10-05T01:00:20.576Z,76.15
2022-10-05T01:00:32.047Z,76.17
2022-10-05T01:00:42.029Z,76.32
2022-10-05T01:00:50.587Z,76.32
2022-10-05T01:01:02.092Z,76.25
2022-10-05T01:01:10.732Z,76.42
2022-10-05T01:01:20.601Z,76.42
2022-10-05T01:01:31.458Z,76.44
2022-10-05T01:01:42.005Z,76.58
2022-10-05T01:01:50.629Z,76.62
2022-10-05T01:02:00.645Z,76.51
2022-10-05T01:02:10.813Z,76.55
2022-10-05T01:02:20.779Z,76.55
2022-10-05T01:02:36.744Z,76.57
2022-10-05T01:02:41.916Z,77.04
2022-10-05T01:02:51.633Z,76.85
2022-10-05T01:03:03.055Z,76.73
2022-10-05T01:03:12.536Z,76.76
2022-10-05T01:03:21.735Z,76.71
2022-10-05T01:03:33.025Z,76.68
2022-10-05T01:03:43.034Z,76.80
2022-10-05T01:03:51.843Z,76.82
2022-10-05T01:04:01.882Z,76.75
2022-10-05T01:04:11.813Z,76.81
2022-10-05T01:04:21.836Z,76.89
2022-10-05T01:04:33.020Z,76.97
2022-10-05T01:04:41.916Z,77.05
2022-10-05T01:04:51.845Z,76.95
2022-10-05T01:05:01.875Z,77.01
2022-10-05T01:05:11.826Z,77.01
2022-10-05T01:05:21.946Z,77.01
2022-10-05T01:05:31.575Z,77.07
2022-10-05T01:05:41.576Z,77.07
2022-10-05T01:05:51.957Z,77.07
2022-10-05T01:06:01.885Z,77.17
2022-10-05T01:06:13.005Z,77.17
2022-10-05T01:06:21.956Z,77.27
2022-10-05T01:06:32.436Z,77.22
2022-10-05T01:06:43.196Z,77.32
2022-10-05T01:06:51.566Z,77.44
2022-10-05T01:07:01.566Z,77.30
2022-10-05T01:07:13.015Z,77.34
2022-10-05T01:07:21.956Z,77.52
2022-10-05T01:07:32.347Z,77.42
2022-10-05T01:07:41.559Z,77.47
2022-10-05T01:07:53.015Z,77.47
2022-10-05T01:08:02.546Z,77.62
2022-10-05T01:08:11.557Z,77.57
2022-10-05T01:08:23.020Z,77.52
2022-10-05T01:08:32.506Z,77.68
2022-10-05T01:08:41.556Z,77.70
2022-10-05T01:08:52.999Z,77.71
2022-10-05T01:09:01.621Z,77.87
2022-10-05T01:09:11.545Z,77.83
2022-10-05T01:09:21.564Z,77.78
2022-10-05T01:09:32.406Z,77.82
2022-10-05T01:09:42.987Z,77.91
2022-10-05T01:09:52.996Z,77.91
2022-10-05T01:10:01.538Z,77.91
2022-10-05T01:10:13.007Z,77.81
2022-10-05T01:10:22.987Z,77.95
2022-10-05T01:10:31.546Z,78.00
2022-10-05T01:10:41.552Z,77.94
2022-10-05T01:10:52.998Z,78.00
2022-10-05T01:11:01.556Z,78.06
2022-10-05T01:11:11.540Z,77.97
2022-10-05T01:11:23.008Z,77.96
2022-10-05T01:11:32.987Z,78.09
2022-10-05T01:11:41.541Z,78.05
2022-10-05T01:11:52.997Z,77.98
2022-10-05T01:12:02.968Z,78.03
2022-10-05T01:12:11.795Z,77.99
2022-10-05T01:12:22.957Z,77.93
2022-10-05T01:12:32.977Z,78.05
2022-10-05T01:12:42.968Z,78.03
2022-10-05T01:12:51.798Z,78.09
2022-10-05T01:13:01.646Z,78.04
2022-10-05T01:13:12.308Z,78.10
2022-10-05T01:13:22.973Z,78.16
2022-10-05T01:13:32.990Z,78.19
2022-10-05T01:13:42.967Z,78.15
2022-10-05T01:13:52.981Z,78.20
2022-10-05T01:14:03.002Z,78.23
2022-10-05T01:14:12.967Z,78.21
2022-10-05T01:14:22.986Z,78.28
2022-10-05T01:14:32.968Z,78.29
2022-10-05T01:14:41.505Z,78.30
2022-10-05T01:14:52.965Z,78.22
2022-10-05T01:15:02.955Z,78.37
2022-10-05T01:15:11.511Z,78.41
2022-10-05T01:15:21.517Z,78.33
2022-10-05T01:15:32.948Z,78.36
2022-10-05T01:15:42.947Z,78.57
2022-10-05T01:15:52.958Z,78.64
2022-10-05T01:16:02.979Z,78.72
2022-10-05T01:16:12.498Z,78.74
2022-10-05T01:16:23.011Z,78.73
2022-10-05T01:16:32.988Z,78.79
2022-10-05T01:16:43.093Z,78.75
2022-10-05T01:16:51.660Z,78.75
2022-10-05T01:17:03.004Z,78.71
2022-10-05T01:17:11.506Z,78.88
2022-10-05T01:17:22.948Z,78.72
2022-10-05T01:17:32.985Z,78.94
2022-10-05T01:17:42.941Z,78.86
2022-10-05T01:17:52.937Z,78.85
2022-10-05T01:18:02.928Z,78.89
2022-10-05T01:18:12.459Z,78.95
2022-10-05T01:18:21.488Z,78.95
2022-10-05T01:18:31.498Z,78.90
2022-10-05T01:18:42.938Z,78.92
2022-10-05T01:18:52.930Z,79.07
2022-10-05T01:19:01.490Z,79.06
2022-10-05T01:19:12.970Z,78.93
2022-10-05T01:19:22.930Z,79.00
2022-10-05T01:19:32.929Z,78.97
2022-10-05T01:19:41.477Z,78.94
2022-10-05T01:19:52.955Z,78.87
2022-10-05T01:20:02.929Z,79.00
2022-10-05T01:20:12.925Z,79.02
2022-10-05T01:20:22.940Z,78.95
2022-10-05T01:20:31.470Z,78.99
2022-10-05T01:20:42.930Z,78.81
2022-10-05T01:20:51.469Z,78.94
2022-10-05T01:21:02.928Z,78.90
2022-10-05T01:21:11.580Z,78.96
2022-10-05T01:21:21.479Z,78.81
2022-10-05T01:21:31.470Z,78.82
2022-10-05T01:21:42.919Z,78.83
2022-10-05T01:21:52.920Z,78.97
2022-10-05T01:22:01.459Z,78.93
2022-10-05T01:22:11.503Z,78.77
2022-10-05T01:22:22.919Z,78.79
2022-10-05T01:22:32.920Z,78.93
2022-10-05T01:22:41.460Z,78.95
2022-10-05T01:22:52.920Z,78.90
2022-10-05T01:23:02.911Z,78.97
2022-10-05T01:23:12.908Z,78.99
2022-10-05T01:23:22.906Z,78.99
2022-10-05T01:23:32.899Z,78.96
2022-10-05T01:23:42.898Z,79.01
2022-10-05T01:23:52.907Z,78.99
2022-10-05T01:24:02.899Z,79.00
2022-10-05T01:24:11.459Z,79.02
2022-10-05T01:24:21.452Z,78.99
2022-10-05T01:24:32.247Z,79.01
2022-10-05T01:24:42.918Z,79.08
2022-10-05T01:24:51.442Z,79.09
2022-10-05T01:25:02.199Z,78.95
2022-10-05T01:25:11.448Z,79.06
2022-10-05T01:25:22.901Z,79.03
2022-10-05T01:25:32.890Z,79.14
2022-10-05T01:25:41.437Z,79.15
2022-10-05T01:25:52.911Z,79.05
2022-10-05T01:26:02.883Z,79.22
2022-10-05T01:26:11.430Z,79.23
2022-10-05T01:26:21.461Z,79.15
2022-10-05T01:26:31.447Z,79.16
2022-10-05T01:26:42.291Z,79.18
2022-10-05T01:26:52.900Z,79.26
2022-10-05T01:27:02.870Z,79.29
2022-10-05T01:27:12.892Z,79.25
2022-10-05T01:27:21.425Z,79.21
2022-10-05T01:27:32.881Z,79.19
2022-10-05T01:27:42.871Z,79.31
2022-10-05T01:27:51.422Z,79.30
2022-10-05T01:28:01.495Z,79.30
2022-10-05T01:28:12.923Z,79.25
2022-10-05T01:28:21.457Z,79.40
2022-10-05T01:28:32.937Z,79.32
2022-10-05T01:28:41.410Z,79.43
2022-10-05T01:28:52.861Z,79.31
2022-10-05T01:29:02.881Z,79.41
2022-10-05T01:29:12.931Z,79.41
2022-10-05T01:29:21.883Z,79.42
2022-10-05T01:29:32.852Z,79.36
2022-10-05T01:29:42.888Z,79.43
2022-10-05T01:29:51.433Z,79.44
2022-10-05T01:30:02.054Z,79.47
2022-10-05T01:30:11.407Z,79.62
2022-10-05T01:30:22.866Z,79.61
2022-10-05T01:30:31.402Z,79.76
2022-10-05T01:30:42.101Z,79.70
2022-10-05T01:30:52.124Z,79.77
2022-10-05T01:31:02.171Z,79.79
2022-10-05T01:31:11.512Z,79.79
2022-10-05T01:31:21.450Z,79.75
2022-10-05T01:31:32.206Z,79.78
2022-10-05T01:31:42.946Z,79.80
2022-10-05T01:31:51.727Z,79.83
2022-10-05T01:32:02.193Z,79.76
2022-10-05T01:32:12.831Z,79.80
2022-10-05T01:32:22.132Z,79.76
2022-10-05T01:32:32.171Z,79.75
2022-10-05T01:32:41.948Z,79.73
2022-10-05T01:32:52.252Z,79.74
2022-10-05T01:33:02.290Z,79.74
2022-10-05T01:33:12.828Z,79.75
2022-10-05T01:33:22.169Z,79.74
2022-10-05T01:33:31.382Z,79.71
2022-10-05T01:33:42.225Z,79.68
2022-10-05T01:33:52.823Z,79.70
2022-10-05T01:34:01.380Z,79.77
2022-10-05T01:34:12.833Z,79.65
2022-10-05T01:34:21.372Z,79.70
2022-10-05T01:34:32.842Z,79.60
2022-10-05T01:34:42.293Z,79.69
2022-10-05T01:34:51.372Z,79.60
2022-10-05T01:35:02.824Z,79.53
2022-10-05T01:35:11.453Z,79.71
2022-10-05T01:35:21.392Z,79.54
2022-10-05T01:35:31.362Z,79.54
2022-10-05T01:35:42.822Z,79.52
2022-10-05T01:35:51.373Z,79.67
2022-10-05T01:36:02.162Z,79.51
2022-10-05T01:36:11.394Z,79.61
2022-10-05T01:36:21.394Z,79.53
2022-10-05T01:36:32.832Z,79.52
2022-10-05T01:36:43.005Z,79.62
2022-10-05T01:36:52.323Z,79.59
2022-10-05T01:37:01.362Z,79.49
2022-10-05T01:37:12.823Z,79.48
2022-10-05T01:37:22.813Z,79.57
2022-10-05T01:37:31.362Z,79.52
2022-10-05T01:37:42.803Z,79.44
2022-10-05T01:37:51.373Z,79.53
2022-10-05T01:38:02.809Z,79.40
2022-10-05T01:38:11.352Z,79.55
2022-10-05T01:38:21.343Z,79.49
2022-10-05T01:38:31.513Z,79.47
2022-10-05T01:38:41.335Z,79.45
2022-10-05T01:38:51.353Z,79.53
2022-10-05T01:39:02.134Z,79.52
2022-10-05T01:39:12.795Z,79.54
2022-10-05T01:39:22.785Z,79.66
2022-10-05T01:39:31.341Z,79.59
2022-10-05T01:39:42.789Z,79.54
2022-10-05T01:39:51.323Z,79.64
2022-10-05T01:40:01.334Z,79.56
2022-10-05T01:40:12.805Z,79.69
2022-10-05T01:40:21.574Z,79.80
2022-10-05T01:40:32.774Z,79.72
2022-10-05T01:40:42.794Z,79.83
2022-10-05T01:40:51.315Z,79.81
2022-10-05T01:41:01.345Z,79.78
2022-10-05T01:41:11.384Z,79.81
2022-10-05T01:41:22.794Z,79.95
2022-10-05T01:41:32.155Z,80.10
2022-10-05T01:41:42.774Z,80.06
2022-10-05T01:41:51.307Z,80.09
2022-10-05T01:42:02.766Z,80.02
2022-10-05T01:42:11.655Z,80.19
2022-10-05T01:42:22.744Z,80.10
2022-10-05T01:42:32.767Z,80.25
2022-10-05T01:42:41.302Z,80.27
2022-10-05T01:42:51.698Z,80.17
2022-10-05T01:43:01.294Z,80.26
2022-10-05T01:43:12.786Z,80.25
2022-10-05T01:43:21.326Z,80.38
2022-10-05T01:43:31.321Z,80.22
2022-10-05T01:43:42.765Z,80.30
2022-10-05T01:43:51.315Z,80.36
2022-10-05T01:44:01.735Z,80.31
2022-10-05T01:44:11.285Z,80.37
2022-10-05T01:44:21.305Z,80.47
2022-10-05T01:44:32.762Z,80.53
2022-10-05T01:44:41.284Z,80.69
2022-10-05T01:44:52.757Z,80.60
2022-10-05T01:45:02.766Z,80.74
2022-10-05T01:45:12.758Z,80.72
2022-10-05T01:45:21.323Z,80.72
2022-10-05T01:45:32.822Z,80.70
2022-10-05T01:45:42.895Z,80.82
2022-10-05T01:45:52.806Z,80.85
2022-10-05T01:46:02.895Z,80.85
2022-10-05T01:46:11.364Z,80.88
2022-10-05T01:46:21.332Z,80.78
2022-10-05T01:46:32.755Z,80.83
2022-10-05T01:46:41.318Z,81.01
2022-10-05T01:46:52.770Z,80.88
2022-10-05T01:47:02.255Z,80.93
2022-10-05T01:47:11.276Z,80.87
2022-10-05T01:47:22.747Z,80.87
2022-10-05T01:47:33.486Z,80.92
2022-10-05T01:47:42.236Z,80.90
2022-10-05T01:47:51.264Z,80.83
2022-10-05T01:48:01.279Z,80.79
2022-10-05T01:48:12.715Z,80.84
2022-10-05T01:48:22.265Z,80.94
2022-10-05T01:48:31.285Z,80.92
2022-10-05T01:48:42.736Z,80.84
2022-10-05T01:48:52.717Z,80.98
2022-10-05T01:49:01.267Z,80.91
2022-10-05T01:49:11.296Z,80.80
2022-10-05T01:49:22.696Z,80.84
2022-10-05T01:49:31.257Z,81.01
2022-10-05T01:49:42.696Z,80.89
2022-10-05T01:49:51.268Z,81.02
2022-10-05T01:50:02.731Z,80.84
2022-10-05T01:50:12.709Z,80.95
2022-10-05T01:50:22.706Z,80.90
2022-10-05T01:50:32.056Z,80.90
2022-10-05T01:50:42.716Z,80.87
2022-10-05T01:50:51.249Z,80.89
2022-10-05T01:51:02.737Z,80.83
2022-10-05T01:51:12.717Z,81.03
2022-10-05T01:51:21.267Z,80.97
2022-10-05T01:51:32.706Z,80.95
2022-10-05T01:51:41.236Z,81.07
2022-10-05T01:51:52.706Z,80.98
2022-10-05T01:52:02.697Z,81.08
2022-10-05T01:52:11.248Z,81.15
2022-10-05T01:52:22.701Z,81.05
2022-10-05T01:52:32.706Z,81.21
2022-10-05T01:52:42.687Z,81.17
2022-10-05T01:52:51.236Z,81.18
2022-10-05T01:53:01.268Z,81.11
2022-10-05T01:53:12.688Z,81.15
2022-10-05T01:53:21.246Z,81.24
2022-10-05T01:53:31.228Z,81.16
2022-10-05T01:53:42.205Z,81.20
2022-10-05T01:53:52.689Z,81.25
2022-10-05T01:54:01.237Z,81.24
2022-10-05T01:54:11.258Z,81.14
2022-10-05T01:54:21.252Z,81.15
2022-10-05T01:54:31.239Z,81.16
2022-10-05T01:54:42.689Z,81.14
2022-10-05T01:54:51.220Z,81.23
2022-10-05T01:55:02.688Z,81.08
2022-10-05T01:55:11.228Z,81.23
2022-10-05T01:55:22.200Z,81.11
2022-10-05T01:55:31.228Z,81.25
2022-10-05T01:55:42.679Z,81.20
2022-10-05T01:55:51.227Z,81.32
2022-10-05T01:56:01.247Z,81.28
2022-10-05T01:56:12.678Z,81.33
2022-10-05T01:56:22.679Z,81.41
2022-10-05T01:56:32.658Z,81.44
2022-10-05T01:56:41.226Z,81.42
2022-10-05T01:56:52.671Z,81.32
2022-10-05T01:57:02.658Z,81.42
2022-10-05T01:57:11.244Z,81.40
2022-10-05T01:57:21.391Z,81.31
2022-10-05T01:57:31.308Z,81.33
2022-10-05T01:57:41.248Z,81.29
2022-10-05T01:57:51.189Z,81.34
2022-10-05T01:58:01.199Z,81.37
2022-10-05T01:58:11.456Z,81.37
2022-10-05T01:58:21.388Z,81.38
2022-10-05T01:58:31.420Z,81.40
2022-10-05T01:58:41.196Z,81.37
2022-10-05T01:58:51.387Z,81.37
2022-10-05T01:59:01.430Z,81.34
2022-10-05T01:59:11.458Z,81.26
2022-10-05T01:59:21.300Z,81.20
2022-10-05T01:59:31.428Z,81.15
2022-10-05T01:59:41.469Z,81.14
2022-10-05T01:59:52.128Z,81.09
2022-10-05T02:00:01.446Z,81.12
2022-10-05T02:00:11.468Z,80.98
2022-10-05T02:00:21.509Z,80.96
2022-10-05T02:00:31.168Z,80.93
2022-10-05T02:00:41.545Z,80.85
2022-10-05T02:00:51.540Z,80.74
2022-10-05T02:01:02.702Z,80.57
2022-10-05T02:01:12.711Z,80.39
2022-10-05T02:01:22.670Z,80.13
2022-10-05T02:01:31.230Z,79.87
2022-10-05T02:01:42.633Z,79.76
2022-10-05T02:01:52.031Z,79.56
2022-10-05T02:02:01.230Z,79.44
2022-10-05T02:02:12.707Z,79.25
2022-10-05T02:02:21.238Z,79.14
2022-10-05T02:02:32.018Z,78.92
2022-10-05T02:02:42.716Z,78.85
2022-10-05T02:02:51.159Z,78.57
2022-10-05T02:03:02.629Z,78.35
2022-10-05T02:03:11.180Z,78.23
2022-10-05T02:03:22.612Z,78.04
2022-10-05T02:03:31.249Z,77.95
2022-10-05T02:03:42.600Z,77.79
2022-10-05T02:03:52.050Z,77.67
2022-10-05T02:04:02.624Z,77.37
2022-10-05T02:04:18.676Z,77.16
2022-10-05T02:04:56.480Z,77.08
2022-10-05T02:05:01.465Z,76.47
2022-10-05T02:05:03.279Z,76.23
2022-10-05T02:05:05.335Z,75.95
2022-10-05T02:05:16.279Z,75.74
2022-10-05T02:05:26.741Z,75.54
2022-10-05T02:05:36.729Z,75.32
2022-10-05T02:05:46.760Z,75.23
2022-10-05T02:05:56.211Z,75.14
2022-10-05T02:06:05.291Z,75.00
2022-10-05T02:06:16.751Z,74.91
2022-10-05T02:06:26.730Z,74.86
2022-10-05T02:06:36.731Z,74.69
2022-10-05T02:06:46.500Z,74.59
2022-10-05T02:06:55.271Z,74.47
2022-10-05T02:07:06.733Z,74.27
2022-10-05T02:07:16.733Z,74.25
2022-10-05T02:07:25.260Z,74.15
2022-10-05T02:07:36.731Z,73.96
2022-10-05T02:07:46.728Z,73.86
2022-10-05T02:07:55.261Z,73.71
2022-10-05T02:08:05.271Z,73.55
2022-10-05T02:08:16.725Z,73.46
2022-10-05T02:08:26.714Z,73.32
2022-10-05T02:08:35.252Z,73.13
2022-10-05T02:08:45.260Z,72.98
2022-10-05T02:08:55.282Z,72.98
2022-10-05T02:09:06.721Z,72.92